To NAV CANADA Home Page Login to a new session Search on AWWS site Feedback and Comments Disclaimer Vers la page française équivalente Tips FAQ What's new on the site To the Forecasts and Observations / NOTAM section To "File a Flight Plan" website Publications and other links Update of the User's profile FIC Telephone Numbers My Weather Data Folder Route Weather Data Regional Weather Data Local Weather Data To the Forecasts and Observations / NOTAM section
Request Generated 10/18/2017 at 03:48:54 UTC . Weather information available at that time is displayed.

METAR/TAF

RANKIN INLET/NU    

METAR CYRT 180300Z 13011KT 15SM BKN014 M05/M06 A2980 RMK SC5 SLP096=
METAR CYRT 180200Z 13009KT 15SM BKN014 M05/M07 A2980 RMK SC5 SLP098=
METAR CYRT 180100Z 14006KT 15SM BKN014 BKN061 M05/M07 A2982 RMK
SC5SC2 SLP104=

TAF CYRT 172338Z 1800/1812 VRB03KT P6SM SCT006 BKN040 TEMPO 1800/1804
BKN006 PROB30 1800/1804 2SM BR
FM180400 10012KT P6SM SCT010 BKN040 TEMPO 1804/1812 BKN010 PROB30
1804/1812 BKN006
RMK NXT FCST BY 180600Z=
Your time UTC time
Weather data provided by Environment Canada and NAV CANADA